This is the latest recevied weather packets stored in our database for station/object KB3KBR-WX. If no packets are shown the sender has not sent any weather packets the latest 10 day(s).
| Time | Temp. | Humidity | Pressure | Rain* | Wind** | Luminosity | Snow |
|---|---|---|---|---|---|---|---|
| 1778020920 | 16.11° C | 83% | 1005 hPa | 0.76 mm | - | - | - |
| 1778020592 | 16.11° C | 83% | 1005 hPa | 0.76 mm | - | - | - |
| 1778020590 | 16.11° C | 83% | 1005 hPa | 0.76 mm | - | - | - |
| 1778020260 | 16.11° C | 81% | 1005.2 hPa | 0.76 mm | - | - | - |
| 1778019960 | 16.67° C | 80% | 1005.1 hPa | 0.76 mm | - | - | - |
| 1778019659 | 16.67° C | 80% | 1005.1 hPa | 0.76 mm | - | - | - |
| 1778019329 | 16.67° C | 80% | 1004.6 hPa | 0.76 mm | - | - | - |
| 1778019000 | 16.67° C | 78% | 1004.5 hPa | 0.76 mm | - | - | - |
| 1778018700 | 17.22° C | 76% | 1004.6 hPa | 0.76 mm | - | - | - |
| 1778018399 | 17.78° C | 73% | 1004.7 hPa | 0.76 mm | - | - | - |
| 1778018070 | 18.89° C | 68% | 1004.7 hPa | 0.25 mm | - | - | - |
| 1778017739 | 19.44° C | 64% | 1004.4 hPa | 0 mm | - | - | - |
| 1778017440 | 19.44° C | 61% | 1004.2 hPa | 0 mm | - | - | - |
| 1778017140 | 19.44° C | 61% | 1004.3 hPa | 0 mm | - | - | - |
| 1778016842 | 20° C | 60% | 1004.2 hPa | 0 mm | - | - | - |
| 1778016839 | 20° C | 60% | 1004.2 hPa | 0 mm | - | - | - |
| 1778016510 | 20° C | 60% | 1004.1 hPa | 0 mm | - | - | - |
| 1778016210 | 20° C | 59% | 1004.1 hPa | 0 mm | - | - | - |
| 1778015910 | 20° C | 60% | 1004.1 hPa | 0 mm | - | - | - |
| 1778015579 | 20° C | 59% | 1004 hPa | 0 mm | - | - | - |
| 1778015249 | 20° C | 60% | 1004.1 hPa | 0 mm | - | - | - |
| 1778014952 | 20° C | 59% | 1004.3 hPa | 0 mm | - | - | - |
| 1778014949 | 20° C | 59% | 1004.3 hPa | 0 mm | - | - | - |
| 1778014620 | 20° C | 60% | 1004.3 hPa | 0 mm | - | - | - |
| 1778014292 | 20° C | 60% | 1004.4 hPa | 0 mm | - | - | - |
* Rain latest hour (hover to see other rain measurements)
** Current wind speed in m/s (hover to see current wind gust speed)